Main page
METAR-TAF:

METAR-TAF

Airports :

Municipal Airport

Plymouth, New Hampshire, United States

latitude: 43-46-45N, longitude: 071-45-13W, elevation: 505 ft

Current weather observation

The report was made 18 minutes ago, at 18:15 UTC
Wind 10 mph from the Southwest with gusts up to 28 mph
Temperature 30°F
Humidity 40%
Pressure 29.62 in. Hg
Visibility: 10 miles
Broken clouds at a height of 5500 ft
Overcast at a height of 6500 ft

METAR: K1P1 281815Z AUTO 23009G24KT 10SM BKN055 OVC065 M01/M13 A2962 RMK AO2 T10101128

Time: 13:33 (18:33 UTC)


TAF: missing

Weather observations and forecasts of more than 4000 airports (METAR and TAF reports).

The available stations are represented by yellow and red dots on the map.

Hover mouse over dot to see the name of the station.

Then click to see weather observations and forecasts.

To change the map : click on the green buttons with a black cross to zoom in, on the green button with a dash to zoom out, or on the green arrows for adjacent maps.


METAR-TAF: